Time;durP1;ratioP1;P1;durP2;ratioP2;P2;SDS_P1;SDS_P2;PMS_P1;PMS_P2;Temp;Humidity;BMP_temperature;BMP_pressure;BME280_temperature;BME280_humidity;BME280_pressure;Samples;Min_cycle;Max_cycle;Signal;HPM_P1;HPM_P2
2022/03/27 00:01:07;;;;;;;15.38;11.82;;;;;;;9.04;86.72;103124.50;7393875;19;20023;-59
2022/03/27 00:03:36;;;;;;;15.40;10.88;;;;;;;9.05;86.88;103123.63;7394044;19;20014;-57
2022/03/27 00:06:05;;;;;;;18.75;12.18;;;;;;;9.16;85.98;103127.13;7392150;19;20022;-61
2022/03/27 00:08:34;;;;;;;23.35;12.55;;;;;;;9.11;86.13;103131.47;7394031;19;20014;-61
2022/03/27 00:13:47;;;;;;;16.25;11.98;;;;;;;8.99;86.90;103130.59;7393065;19;20037;-59
2022/03/27 00:16:16;;;;;;;18.02;12.50;;;;;;;8.74;87.91;103128.84;7391015;19;20523;-59
2022/03/27 00:18:45;;;;;;;15.35;11.68;;;;;;;8.68;88.47;103132.34;7391867;19;20115;-58
2022/03/27 00:21:14;;;;;;;16.83;13.13;;;;;;;8.64;88.74;103136.69;7392058;19;20022;-58
2022/03/27 00:23:44;;;;;;;16.13;12.52;;;;;;;8.74;88.39;103141.94;7392452;19;20017;-58
2022/03/27 00:26:13;;;;;;;19.23;14.40;;;;;;;8.80;88.04;103148.03;7390786;19;20014;-58
2022/03/27 00:28:42;;;;;;;19.30;13.13;;;;;;;8.95;87.40;103138.47;7390385;19;20038;-59
2022/03/27 00:31:14;;;;;;;16.52;12.75;;;;;;;8.87;87.47;103138.47;7389619;19;20022;-59
2022/03/27 00:33:45;;;;;;;16.33;12.23;;;;;;;9.00;87.05;103134.97;7392106;19;20018;-59
2022/03/27 00:36:16;;;;;;;17.73;12.95;;;;;;;9.10;85.93;103127.13;7390463;19;20271;-60
2022/03/27 00:38:46;;;;;;;19.35;13.73;;;;;;;8.85;87.23;103136.72;7391711;19;20034;-58
2022/03/27 00:41:17;;;;;;;19.10;13.18;;;;;;;8.79;87.19;103125.38;7393005;19;20090;-60
2022/03/27 00:43:46;;;;;;;15.63;12.82;;;;;;;8.68;88.29;103134.09;7391499;19;20014;-60
2022/03/27 00:46:18;;;;;;;18.48;13.82;;;;;;;8.71;88.11;103137.59;7390484;19;20022;-59
2022/03/27 00:48:47;;;;;;;19.05;14.95;;;;;;;8.79;87.91;103140.19;7390302;19;20125;-58
2022/03/27 00:51:16;;;;;;;17.38;14.32;;;;;;;8.50;89.10;103135.81;7390567;19;20019;-57
2022/03/27 00:53:45;;;;;;;20.13;14.77;;;;;;;8.73;88.24;103135.84;7391635;19;20022;-61
2022/03/27 00:56:14;;;;;;;18.65;14.73;;;;;;;8.76;87.83;103132.34;7389391;19;20396;-61
2022/03/27 00:58:42;;;;;;;18.58;14.88;;;;;;;8.78;87.48;103138.44;7395281;19;20027;-60
2022/03/27 01:01:25;;;;;;;20.52;16.05;;;;;;;8.83;86.81;103121.91;7393094;19;20010;-61
2022/03/27 01:03:54;;;;;;;23.93;17.57;;;;;;;8.58;88.11;103128.88;7390618;19;20019;-60
2022/03/27 01:06:31;;;;;;;23.90;17.65;;;;;;;8.54;88.81;103131.44;7389762;19;20022;-61
2022/03/27 01:11:42;;;;;;;22.80;16.65;;;;;;;8.61;88.15;103138.44;7394737;19;20014;-59
2022/03/27 01:14:11;;;;;;;22.85;17.75;;;;;;;8.63;88.14;103136.72;7397659;19;20407;-58
2022/03/27 01:16:45;;;;;;;25.60;18.17;;;;;;;8.42;89.26;103132.28;7394153;19;20048;-60
2022/03/27 01:19:18;;;;;;;25.83;18.05;;;;;;;8.59;88.38;103129.72;7392128;19;20021;-61
2022/03/27 01:21:50;;;;;;;26.40;18.23;;;;;;;8.55;88.76;103128.84;7392631;19;20015;-60
2022/03/27 01:24:20;;;;;;;24.15;18.67;;;;;;;8.59;88.30;103135.81;7391815;19;20044;-59
2022/03/27 01:26:50;;;;;;;24.90;18.65;;;;;;;8.35;89.25;103130.50;7390448;19;20019;-55
2022/03/27 01:29:19;;;;;;;26.23;18.92;;;;;;;8.50;89.17;103125.38;7388285;19;20029;-57
2022/03/27 01:31:51;;;;;;;22.98;18.00;;;;;;;8.59;88.64;103127.13;7388561;19;20105;-59
2022/03/27 01:34:20;;;;;;;24.07;18.83;;;;;;;8.62;88.09;103127.97;7390349;19;20338;-58
2022/03/27 01:36:52;;;;;;;22.25;17.75;;;;;;;8.52;88.35;103126.22;7388710;19;20014;-55
2022/03/27 01:39:21;;;;;;;23.83;18.23;;;;;;;8.55;88.29;103127.97;7389967;19;20019;-60
2022/03/27 01:41:50;;;;;;;23.75;18.60;;;;;;;8.47;88.28;103127.97;7389657;19;20471;-60
2022/03/27 01:44:21;;;;;;;23.23;17.33;;;;;;;8.49;88.34;103119.25;7391257;19;20011;-58
2022/03/27 01:46:50;;;;;;;22.30;17.23;;;;;;;8.52;88.21;103118.38;7388332;19;20018;-58
2022/03/27 01:49:19;;;;;;;22.60;16.98;;;;;;;8.58;87.97;103123.63;7387147;19;20018;-58
2022/03/27 01:51:49;;;;;;;21.92;16.35;;;;;;;8.44;87.20;103117.50;7389718;19;20022;-58
2022/03/27 01:54:22;;;;;;;19.67;15.40;;;;;;;8.47;87.93;103115.78;7389068;19;20018;-54
2022/03/27 01:56:51;;;;;;;22.27;16.98;;;;;;;8.34;88.33;103119.22;7387929;19;20018;-58
2022/03/27 01:59:22;;;;;;;21.15;15.98;;;;;;;8.41;88.11;103126.19;7391840;19;20620;-58
2022/03/27 02:01:51;;;;;;;21.05;15.95;;;;;;;8.43;87.90;103121.81;7392494;19;20035;-61
2022/03/27 02:04:20;;;;;;;21.70;16.25;;;;;;;8.38;88.00;103131.41;7389895;19;20014;-58
2022/03/27 02:06:49;;;;;;;20.25;15.77;;;;;;;8.30;88.03;103125.28;7384939;19;20019;-59
2022/03/27 02:09:20;;;;;;;21.15;15.23;;;;;;;8.14;88.22;103127.00;7381207;19;20018;-58
2022/03/27 02:11:49;;;;;;;18.63;15.15;;;;;;;8.25;88.11;103133.13;7386780;19;20018;-58
2022/03/27 02:14:18;;;;;;;20.80;15.85;;;;;;;8.32;87.80;103127.03;7390430;19;20014;-59
2022/03/27 02:16:47;;;;;;;19.45;14.98;;;;;;;8.35;86.85;103128.75;7386940;19;20018;-59
2022/03/27 02:19:16;;;;;;;17.67;13.45;;;;;;;8.33;86.97;103125.28;7388265;19;20017;-61
2022/03/27 02:21:45;;;;;;;18.65;14.65;;;;;;;8.25;87.39;103124.38;7388571;19;20015;-60
2022/03/27 02:24:14;;;;;;;19.90;15.73;;;;;;;8.17;87.20;103124.38;7388982;19;20355;-60
2022/03/27 02:26:50;;;;;;;19.67;14.68;;;;;;;7.97;88.37;103127.78;7384829;19;20171;-59
2022/03/27 02:29:19;;;;;;;26.48;15.15;;;;;;;8.07;88.63;103127.84;7384557;19;20022;-58
2022/03/27 02:31:49;;;;;;;20.10;15.02;;;;;;;8.12;87.99;103128.69;7389694;19;20015;-61
2022/03/27 02:34:17;;;;;;;22.40;16.48;;;;;;;8.34;87.21;103124.44;7386831;19;20026;-59
2022/03/27 02:36:46;;;;;;;22.27;16.20;;;;;;;8.35;87.06;103117.44;7384658;19;20348;-60
2022/03/27 02:39:15;;;;;;;24.25;16.42;;;;;;;8.25;87.07;103121.78;7385965;19;20018;-59
2022/03/27 02:41:45;;;;;;;23.83;17.20;;;;;;;8.19;87.35;103119.16;7385965;19;20018;-59
2022/03/27 02:44:16;;;;;;;21.95;16.02;;;;;;;8.17;87.66;103120.88;7385689;19;20019;-59
2022/03/27 02:46:45;;;;;;;21.73;16.35;;;;;;;8.17;87.71;103126.09;7385202;19;20022;-60
2022/03/27 02:49:14;;;;;;;21.67;15.85;;;;;;;8.02;87.63;103124.31;7386950;19;20034;-60
2022/03/27 02:51:45;;;;;;;22.77;15.05;;;;;;;7.97;87.87;103117.34;7386268;19;20025;-58
2022/03/27 02:54:14;;;;;;;21.88;15.50;;;;;;;8.02;87.86;103130.41;7386762;19;20052;-59
2022/03/27 02:56:43;;;;;;;24.00;16.27;;;;;;;7.99;87.79;103126.94;7383193;19;20025;-59
2022/03/27 02:59:12;;;;;;;24.65;16.23;;;;;;;7.95;88.03;103126.91;7385515;19;20316;-59
2022/03/27 03:01:44;;;;;;;23.90;16.45;;;;;;;8.05;87.38;103125.22;7388603;19;20020;-58
2022/03/27 03:04:14;;;;;;;22.92;15.73;;;;;;;7.93;87.48;103126.03;7386812;19;20007;-59
2022/03/27 03:06:44;;;;;;;24.17;16.15;;;;;;;8.01;87.35;103120.84;7383735;19;20022;-60
2022/03/27 03:09:13;;;;;;;23.50;14.93;;;;;;;8.06;86.79;103123.47;7383344;19;20066;-59
2022/03/27 03:11:44;;;;;;;19.80;12.90;;;;;;;7.77;85.69;103124.22;7386084;19;20006;-58
2022/03/27 03:14:13;;;;;;;20.58;13.13;;;;;;;7.56;86.84;103112.78;7386220;19;20403;-60
2022/03/27 03:16:45;;;;;;;26.25;14.65;;;;;;;7.46;87.12;103118.84;7383202;19;20049;-58
2022/03/27 03:19:14;;;;;;;26.67;15.07;;;;;;;7.30;87.75;103119.63;7385186;19;20482;-59
2022/03/27 03:21:43;;;;;;;26.08;15.45;;;;;;;7.15;88.84;103113.44;7387566;19;20018;-58
2022/03/27 03:24:12;;;;;;;26.85;15.50;;;;;;;7.29;88.86;103121.34;7385721;19;20456;-58
2022/03/27 03:26:41;;;;;;;28.42;16.73;;;;;;;7.38;88.39;103110.97;7247007;19;2709944;-58
2022/03/27 03:29:11;;;;;;;29.55;16.67;;;;;;;7.40;87.83;103113.59;7385255;19;20030;-59
2022/03/27 03:31:39;;;;;;;29.58;16.00;;;;;;;7.37;87.79;103117.03;7387222;19;20022;-59
2022/03/27 03:34:11;;;;;;;29.60;16.48;;;;;;;7.39;88.17;103111.84;7387360;19;20011;-59
2022/03/27 03:36:41;;;;;;;29.02;16.20;;;;;;;7.42;87.99;103111.84;7384007;19;20018;-61
2022/03/27 03:39:10;;;;;;;31.85;17.08;;;;;;;7.38;88.13;103110.09;7391256;19;20015;-62
2022/03/27 03:41:39;;;;;;;30.27;16.75;;;;;;;7.41;87.66;103105.78;7387128;19;20011;-60
2022/03/27 03:44:09;;;;;;;31.30;17.30;;;;;;;7.55;87.17;103111.06;7386596;19;20038;-58
2022/03/27 03:46:38;;;;;;;32.97;17.23;;;;;;;7.51;87.12;103103.19;7385490;19;20360;-58
2022/03/27 03:49:07;;;;;;;34.15;17.90;;;;;;;7.41;87.72;103102.31;7385731;19;20010;-58
2022/03/27 03:51:39;;;;;;;32.33;17.02;;;;;;;7.56;87.53;103104.97;7386529;19;20049;-57
2022/03/27 03:54:08;;;;;;;32.27;17.43;;;;;;;7.76;86.17;103105.06;7390203;19;20011;-58
2022/03/27 03:56:38;;;;;;;34.88;18.85;;;;;;;7.62;86.80;103098.91;7391863;19;20377;-60
2022/03/27 03:59:07;;;;;;;35.25;18.02;;;;;;;7.47;87.10;103097.09;7393708;19;20026;-59
2022/03/27 04:01:36;;;;;;;33.25;18.13;;;;;;;7.55;87.02;103102.34;7396719;19;20348;-58
2022/03/27 04:04:05;;;;;;;34.00;18.08;;;;;;;7.56;87.19;103101.50;7394223;19;20022;-59
2022/03/27 04:06:34;;;;;;;34.25;17.98;;;;;;;7.65;86.24;103111.09;7392116;19;20198;-58
2022/03/27 04:09:06;;;;;;;36.22;18.77;;;;;;;7.57;86.49;103109.34;7392035;19;20018;-59
2022/03/27 04:11:35;;;;;;;33.30;18.33;;;;;;;7.49;86.78;103107.56;7397581;19;20021;-60
2022/03/27 04:14:04;;;;;;;32.03;17.13;;;;;;;7.49;86.17;103104.94;7394043;19;20021;-60
2022/03/27 04:16:33;;;;;;;30.77;16.38;;;;;;;7.54;86.02;103101.50;7392464;19;20097;-59
2022/03/27 04:19:02;;;;;;;33.63;17.02;;;;;;;7.48;85.92;103111.91;7393604;19;20514;-60
2022/03/27 04:21:31;;;;;;;26.45;15.25;;;;;;;7.48;85.50;103114.50;7392799;19;20014;-60
2022/03/27 04:24:00;;;;;;;27.77;15.27;;;;;;;7.38;85.46;103113.59;7393576;19;20018;-60
2022/03/27 04:26:32;;;;;;;32.42;17.77;;;;;;;7.06;86.79;103118.56;7393721;19;20454;-59
2022/03/27 04:29:02;;;;;;;32.45;17.42;;;;;;;6.98;87.24;103115.03;7392446;19;20022;-59
2022/03/27 04:31:31;;;;;;;31.92;17.38;;;;;;;6.86;87.79;103119.31;7393282;19;20483;-58
2022/03/27 04:34:00;;;;;;;30.40;16.73;;;;;;;6.85;87.89;103120.16;7393629;19;20252;-60
2022/03/27 04:36:29;;;;;;;29.98;17.45;;;;;;;6.82;88.12;103124.44;7407373;19;20019;-61
2022/03/27 04:38:58;;;;;;;27.95;16.23;;;;;;;6.81;87.65;103125.34;7402943;19;20015;-58
2022/03/27 04:41:27;;;;;;;28.92;16.98;;;;;;;6.80;87.31;103123.56;7396243;19;20025;-60
2022/03/27 04:43:58;;;;;;;30.77;16.63;;;;;;;6.75;87.36;103128.75;7393411;19;20021;-59
2022/03/27 04:46:27;;;;;;;26.92;15.90;;;;;;;6.88;86.89;103124.53;7392103;19;20019;-61
2022/03/27 04:48:56;;;;;;;29.00;15.75;;;;;;;6.70;86.23;103125.22;7393644;19;20431;-58
2022/03/27 04:51:25;;;;;;;26.55;15.85;;;;;;;6.80;86.14;103127.03;7394047;19;20025;-61
2022/03/27 04:53:54;;;;;;;26.27;15.02;;;;;;;6.78;85.59;103135.69;7394912;19;20019;-61
2022/03/27 04:56:23;;;;;;;24.52;14.07;;;;;;;6.91;84.80;103125.41;7395506;19;20444;-59
2022/03/27 04:58:52;;;;;;;26.55;15.57;;;;;;;6.92;84.05;103126.31;7396863;19;20018;-60
2022/03/27 05:01:23;;;;;;;26.17;15.63;;;;;;;6.80;84.02;103134.00;7402522;19;20025;-59
2022/03/27 05:03:52;;;;;;;24.92;14.90;;;;;;;6.48;84.47;103125.03;7402134;19;20026;-60
2022/03/27 05:06:21;;;;;;;26.35;15.52;;;;;;;6.30;85.47;103130.03;7402343;19;20483;-61
2022/03/27 05:08:51;;;;;;;25.55;14.32;;;;;;;6.41;85.37;103139.69;7405611;19;20022;-60
2022/03/27 05:11:21;;;;;;;24.20;14.98;;;;;;;6.47;84.75;103127.59;7404948;19;20476;-59
2022/03/27 05:13:50;;;;;;;25.70;14.75;;;;;;;6.44;84.67;103130.19;7395894;19;20015;-60
2022/03/27 05:16:18;;;;;;;23.60;14.15;;;;;;;6.49;83.98;103125.88;7387548;19;20401;-60
2022/03/27 05:18:51;;;;;;;23.30;13.65;;;;;;;6.30;83.90;103138.69;7386419;19;20022;-60
2022/03/27 05:21:20;;;;;;;24.48;14.25;;;;;;;6.29;83.87;103142.19;7390200;19;20482;-60
2022/03/27 05:23:49;;;;;;;21.27;13.13;;;;;;;6.14;84.26;103137.66;7391604;19;20114;-57
2022/03/27 05:26:18;;;;;;;23.67;14.40;;;;;;;5.87;85.00;103131.25;7389997;19;20365;-59
2022/03/27 05:28:47;;;;;;;23.25;14.77;;;;;;;5.98;84.79;103138.34;7391260;19;20010;-59
2022/03/27 05:31:16;;;;;;;20.20;12.75;;;;;;;6.14;84.70;103139.41;7390645;19;20448;-60
2022/03/27 05:33:45;;;;;;;22.80;13.55;;;;;;;6.09;84.25;103134.16;7392430;19;20493;-62
2022/03/27 05:36:17;;;;;;;25.42;14.45;;;;;;;6.00;84.53;103139.22;7391249;19;20014;-58
2022/03/27 05:38:46;;;;;;;23.08;14.50;;;;;;;6.00;84.42;103136.63;7392928;19;20538;-57
2022/03/27 05:41:15;;;;;;;23.38;14.07;;;;;;;6.15;84.37;103139.41;7389928;19;20029;-59
2022/03/27 05:43:44;;;;;;;21.52;13.88;;;;;;;6.02;84.60;103141.00;7393426;19;20014;-60
2022/03/27 05:46:13;;;;;;;23.63;13.93;;;;;;;6.11;84.21;103142.84;7389833;19;20110;-60
2022/03/27 05:48:42;;;;;;;26.33;13.95;;;;;;;6.10;83.95;103135.88;7391496;19;20010;-60
2022/03/27 05:51:10;;;;;;;24.23;13.48;;;;;;;6.17;84.12;103142.03;7389964;19;20014;-61
2022/03/27 05:53:43;;;;;;;26.10;14.73;;;;;;;6.32;83.26;103141.31;7390573;19;20099;-56
2022/03/27 05:56:12;;;;;;;25.90;14.55;;;;;;;6.20;83.17;103136.84;7389887;19;20035;-55
2022/03/27 05:58:40;;;;;;;22.58;13.98;;;;;;;6.08;84.07;103141.94;7393883;19;20490;-59
2022/03/27 06:01:09;;;;;;;24.67;15.10;;;;;;;6.13;83.92;103142.84;7391774;19;20021;-59
2022/03/27 06:03:38;;;;;;;52.30;17.10;;;;;;;6.26;83.58;103136.06;7389735;19;20014;-60
2022/03/27 06:06:07;;;;;;;25.27;14.10;;;;;;;6.39;82.96;103141.41;7388630;19;20022;-56
2022/03/27 06:08:36;;;;;;;28.50;16.15;;;;;;;6.25;82.93;103135.19;7389777;19;20021;-58
2022/03/27 06:11:07;;;;;;;29.38;15.27;;;;;;;6.09;83.32;103146.28;7389592;19;20458;-60
2022/03/27 06:13:36;;;;;;;29.83;16.35;;;;;;;5.88;84.35;103148.59;7390220;19;20014;-60
2022/03/27 06:16:06;;;;;;;29.67;15.73;;;;;;;5.92;84.66;103146.91;7385255;19;20019;-58
2022/03/27 06:18:35;;;;;;;28.50;15.82;;;;;;;5.98;84.27;103148.75;7383398;19;20018;-62
2022/03/27 06:21:04;;;;;;;30.77;16.85;;;;;;;6.05;84.20;103156.66;7386699;19;20022;-60
2022/03/27 06:23:33;;;;;;;29.65;15.85;;;;;;;6.09;84.34;103156.69;7391079;19;20011;-60
2022/03/27 06:26:03;;;;;;;31.80;17.20;;;;;;;5.99;84.99;103158.28;7389930;19;20340;-58
2022/03/27 06:28:35;;;;;;;31.27;17.27;;;;;;;6.10;85.09;103159.28;7392160;19;20054;-59
2022/03/27 06:31:04;;;;;;;27.95;16.63;;;;;;;6.18;84.12;103162.00;7391242;19;20011;-59
2022/03/27 06:33:33;;;;;;;28.52;15.95;;;;;;;6.17;83.88;103160.25;7400228;19;20025;-59
2022/03/27 06:36:01;;;;;;;30.30;16.10;;;;;;;6.17;83.57;103165.47;7400453;19;20050;-59
2022/03/27 06:38:31;;;;;;;30.70;17.05;;;;;;;6.12;83.13;103168.03;7394930;19;20031;-59
2022/03/27 06:41:01;;;;;;;30.92;15.50;;;;;;;6.00;83.53;103166.16;7390902;19;20010;-56
2022/03/27 06:43:29;;;;;;;30.42;16.17;;;;;;;6.11;82.93;103171.47;7391243;19;20356;-61
2022/03/27 06:46:01;;;;;;;30.90;16.73;;;;;;;6.15;82.85;103168.06;7389727;19;20030;-61
2022/03/27 06:48:30;;;;;;;30.42;16.58;;;;;;;6.13;83.04;103174.97;7394361;19;20011;-57
2022/03/27 06:51:00;;;;;;;30.95;15.75;;;;;;;6.07;82.92;103169.69;7367384;19;20392;-58
2022/03/27 06:53:28;;;;;;;29.13;17.00;;;;;;;6.13;82.51;103164.56;7391012;19;20458;-58
2022/03/27 06:55:57;;;;;;;29.63;16.83;;;;;;;6.17;82.44;103165.47;7389178;19;20027;-61
2022/03/27 06:58:26;;;;;;;28.60;15.80;;;;;;;6.09;82.53;103165.38;7389826;19;20029;-57
2022/03/27 07:03:39;;;;;;;30.13;16.10;;;;;;;6.11;82.48;103162.78;7394102;19;20026;-57
2022/03/27 07:06:08;;;;;;;28.55;15.35;;;;;;;6.33;82.18;103164.81;7382540;19;20762;-60
2022/03/27 07:08:37;;;;;;;29.40;16.50;;;;;;;6.41;81.25;103159.66;7383148;19;20022;-56
2022/03/27 07:11:06;;;;;;;28.52;14.82;;;;;;;6.55;80.57;103163.28;7386782;19;20022;-60
2022/03/27 07:13:35;;;;;;;26.48;14.93;;;;;;;6.70;79.58;103154.75;7391017;19;20014;-63
2022/03/27 07:16:04;;;;;;;28.58;15.77;;;;;;;6.74;79.20;103166.09;7367773;19;20491;-59
2022/03/27 07:18:33;;;;;;;28.92;15.77;;;;;;;6.79;79.65;103161.81;7390549;19;20340;-59
2022/03/27 07:21:04;;;;;;;29.73;15.57;;;;;;;6.96;78.81;103158.47;7394914;19;20011;-63
2022/03/27 07:23:33;;;;;;;26.40;14.80;;;;;;;7.09;77.98;103158.59;7390991;19;20479;-61
2022/03/27 07:26:02;;;;;;;27.30;15.73;;;;;;;7.18;77.65;103154.28;7389944;19;20018;-60
2022/03/27 07:28:31;;;;;;;27.55;15.65;;;;;;;7.11;77.66;103161.19;7390518;19;20039;-60
2022/03/27 07:31:02;;;;;;;28.23;15.38;;;;;;;6.96;77.98;103161.94;7395808;19;20018;-60
2022/03/27 07:33:31;;;;;;;25.92;15.73;;;;;;;7.17;77.77;103152.56;7397591;19;20026;-58
2022/03/27 07:36:01;;;;;;;27.45;15.63;;;;;;;7.32;76.69;103151.78;7395447;19;20010;-61
2022/03/27 07:38:32;;;;;;;27.10;16.15;;;;;;;7.43;76.46;103153.59;7400839;19;20026;-61
2022/03/27 07:41:02;;;;;;;26.85;15.07;;;;;;;7.28;76.42;103153.50;7395908;19;20379;-59
2022/03/27 07:43:32;;;;;;;26.42;15.52;;;;;;;7.35;76.04;103159.63;7396203;19;20021;-59
2022/03/27 07:46:01;;;;;;;25.73;14.75;;;;;;;7.35;75.92;103154.41;7396073;19;20515;-57
2022/03/27 07:48:30;;;;;;;25.73;14.73;;;;;;;7.49;75.25;103150.16;7396446;19;20014;-58
2022/03/27 07:50:59;;;;;;;27.63;15.50;;;;;;;7.59;73.92;103151.97;7393346;19;20352;-59
2022/03/27 07:53:28;;;;;;;24.65;15.00;;;;;;;7.59;74.13;103164.13;7397869;19;20014;-58
2022/03/27 07:55:59;;;;;;;27.80;15.15;;;;;;;7.82;73.36;103159.03;7394567;19;20010;-59
2022/03/27 07:58:28;;;;;;;25.75;15.05;;;;;;;7.98;72.59;103160.00;7395886;19;20019;-58
2022/03/27 08:00:57;;;;;;;26.95;14.90;;;;;;;7.88;72.97;103168.63;7397274;19;20026;-57
2022/03/27 08:03:26;;;;;;;24.70;14.57;;;;;;;7.93;72.46;103170.41;7395756;19;20487;-60
2022/03/27 08:05:55;;;;;;;22.85;13.95;;;;;;;8.04;70.49;103173.06;7395649;19;20021;-55
2022/03/27 08:08:24;;;;;;;27.23;16.38;;;;;;;8.13;70.54;103172.25;7396007;19;20018;-58
2022/03/27 08:10:53;;;;;;;31.15;16.85;;;;;;;8.18;70.91;103169.63;7395894;19;20010;-59
2022/03/27 08:13:24;;;;;;;25.15;14.82;;;;;;;8.17;69.00;103168.78;7394660;19;20048;-61
2022/03/27 08:15:54;;;;;;;25.23;15.13;;;;;;;8.39;68.39;103171.47;7394215;19;20021;-59
2022/03/27 08:18:23;;;;;;;24.52;14.95;;;;;;;8.57;67.63;103170.69;7395259;19;20522;-55
2022/03/27 08:20:52;;;;;;;24.40;14.15;;;;;;;8.66;66.81;103171.53;7395434;19;20037;-59
2022/03/27 08:23:22;;;;;;;23.48;14.35;;;;;;;8.66;66.29;103171.53;7394001;19;20019;-59
2022/03/27 08:28:35;;;;;;;31.05;15.00;;;;;;;8.70;66.27;103161.97;7394440;19;20082;-60
2022/03/27 08:31:04;;;;;;;27.52;15.27;;;;;;;8.78;66.58;103168.09;7392880;19;20470;-62
2022/03/27 08:33:33;;;;;;;25.15;14.85;;;;;;;8.95;65.86;103169.84;7417721;19;20022;-62
2022/03/27 08:36:01;;;;;;;25.63;15.02;;;;;;;8.82;66.81;103167.19;7394689;19;20029;-60
2022/03/27 08:38:30;;;;;;;26.60;14.70;;;;;;;9.02;66.27;103168.09;7394735;19;20014;-59
2022/03/27 08:41:01;;;;;;;23.00;14.52;;;;;;;9.16;64.38;103167.22;7390968;19;20026;-60
2022/03/27 08:43:35;;;;;;;27.35;14.27;;;;;;;9.39;62.98;103168.94;7396690;19;20015;-57
2022/03/27 08:46:05;;;;;;;23.63;14.07;;;;;;;9.56;61.59;103168.91;7392140;19;20014;-60
2022/03/27 08:48:34;;;;;;;23.08;13.25;;;;;;;9.50;60.62;103164.56;7393281;19;20117;-60
2022/03/27 08:51:11;;;;;;;24.00;14.40;;;;;;;9.66;61.74;103161.94;7394385;19;20451;-59
2022/03/27 08:53:59;;;;;;;23.17;14.10;;;;;;;9.53;62.32;103163.69;7393860;19;20107;-61
2022/03/27 08:56:29;;;;;;;24.58;14.32;;;;;;;9.78;62.12;103161.00;7392025;19;20011;-59
2022/03/27 08:59:05;;;;;;;26.02;15.52;;;;;;;9.66;62.90;103151.44;7397416;19;20007;-57
2022/03/27 09:01:34;;;;;;;26.75;16.38;;;;;;;9.39;64.13;103158.47;7395241;19;20026;-61
2022/03/27 09:04:03;;;;;;;27.27;15.50;;;;;;;9.39;64.91;103157.63;7392676;19;20041;-61
2022/03/27 09:06:32;;;;;;;27.83;16.40;;;;;;;9.52;64.72;103154.97;7391450;19;20029;-62
2022/03/27 09:09:01;;;;;;;24.45;14.60;;;;;;;9.64;63.70;103148.84;7393017;19;20007;-58
2022/03/27 09:11:33;;;;;;;25.17;15.05;;;;;;;9.84;62.73;103153.13;7391265;19;20046;-60
2022/03/27 09:14:07;;;;;;;;;;;;;;;10.00;60.69;103146.97;7396188;19;20010;-56
2022/03/27 09:17:01;;;;;;;24.00;14.43;;;;;;;10.07;60.41;103146.94;7393438;19;19919;-57
2022/03/27 09:19:43;;;;;;;24.95;15.50;;;;;;;9.96;61.35;103144.38;7396586;19;20029;-58
2022/03/27 09:22:17;;;;;;;25.75;15.65;;;;;;;10.30;59.97;103149.44;7393352;19;20018;-60
2022/03/27 09:24:49;;;;;;;22.42;14.02;;;;;;;10.38;59.41;103135.44;7392691;19;20053;-62
2022/03/27 09:27:20;;;;;;;24.42;14.45;;;;;;;10.58;58.16;103141.44;7393248;19;20426;-61
2022/03/27 09:30:06;;;;;;;28.65;13.98;;;;;;;10.52;57.96;103139.72;7392312;19;20025;-60
2022/03/27 09:32:37;;;;;;;24.83;15.32;;;;;;;10.46;60.25;103137.13;7392458;19;20044;-60
2022/03/27 09:35:09;;;;;;;24.52;15.55;;;;;;;10.41;60.62;103134.53;7392289;19;20538;-62
2022/03/27 09:37:41;;;;;;;24.35;15.77;;;;;;;10.22;61.01;103129.38;7391556;19;20026;-62
2022/03/27 09:40:12;;;;;;;25.67;14.48;;;;;;;10.41;60.27;103131.06;7390431;19;20014;-62
2022/03/27 09:42:42;;;;;;;26.05;15.15;;;;;;;10.96;58.86;103130.66;7391834;19;20010;-62
2022/03/27 09:45:19;;;;;;;25.15;15.93;;;;;;;11.28;57.97;103129.47;7391607;19;20360;-61
2022/03/27 09:47:50;;;;;;;22.98;14.05;;;;;;;11.34;56.78;103133.78;7394175;19;20021;-61
2022/03/27 09:50:37;;;;;;;25.67;14.90;;;;;;;11.33;57.55;103134.69;7390999;19;20487;-61
2022/03/27 09:53:25;;;;;;;23.70;14.85;;;;;;;11.42;57.40;103135.44;7391797;19;20006;-61
2022/03/27 09:55:55;;;;;;;22.58;15.02;;;;;;;11.54;56.22;103130.97;7391957;19;20112;-63
2022/03/27 09:58:37;;;;;;;28.38;15.85;;;;;;;11.34;56.39;103120.66;7392651;19;20014;-59
2022/03/27 10:01:14;;;;;;;29.88;14.73;;;;;;;11.65;56.37;103118.59;7393017;19;20015;-62
2022/03/27 10:04:00;;;;;;;24.40;14.95;;;;;;;11.64;55.89;103127.34;7394967;19;20020;-62
2022/03/27 10:06:31;;;;;;;25.95;15.88;;;;;;;11.55;56.02;103119.59;7401001;19;20363;-62
2022/03/27 10:09:01;;;;;;;22.95;15.75;;;;;;;11.48;56.82;103115.28;7401395;19;20027;-62
2022/03/27 10:11:30;;;;;;;22.65;14.90;;;;;;;11.77;55.85;103121.03;7404904;19;20015;-61
2022/03/27 10:14:00;;;;;;;26.20;14.90;;;;;;;11.85;55.67;103110.44;7403798;19;20014;-62
2022/03/27 10:16:34;;;;;;;23.30;14.85;;;;;;;11.63;55.59;103106.34;7397864;19;20014;-61
2022/03/27 10:19:10;;;;;;;24.73;14.85;;;;;;;11.78;55.77;103106.16;7398111;19;20014;-62
2022/03/27 10:21:39;;;;;;;25.10;14.43;;;;;;;11.97;53.82;103109.44;7404703;19;20479;-61
2022/03/27 10:24:13;;;;;;;21.80;14.45;;;;;;;12.09;54.13;103103.16;7399227;19;20034;-60
2022/03/27 10:26:44;;;;;;;21.27;13.65;;;;;;;12.43;53.24;103105.28;7399908;19;20022;-61
2022/03/27 10:29:17;;;;;;;22.02;14.07;;;;;;;12.42;52.70;103101.81;7402954;19;20010;-62
2022/03/27 10:31:48;;;;;;;21.05;14.10;;;;;;;12.28;52.89;103103.78;7403849;19;20026;-61
2022/03/27 10:34:18;;;;;;;23.27;13.80;;;;;;;12.33;52.34;103101.94;7417152;19;20107;-59
2022/03/27 10:36:54;;;;;;;24.02;14.95;;;;;;;12.17;52.28;103092.56;7415248;19;20015;-60
2022/03/27 10:39:28;;;;;;;25.38;14.02;;;;;;;12.17;52.36;103093.41;7408567;19;20022;-60
2022/03/27 10:42:11;;;;;;;24.83;14.60;;;;;;;12.25;52.87;103083.66;7399473;19;20034;-61
2022/03/27 10:44:44;;;;;;;21.40;13.88;;;;;;;12.69;51.53;103081.19;7396339;19;20014;-60
2022/03/27 10:47:17;;;;;;;21.77;13.40;;;;;;;13.11;51.16;103072.56;7390577;19;20026;-60
2022/03/27 10:50:23;;;;;;;20.77;13.15;;;;;;;12.91;51.50;103073.81;7390246;19;20010;-60
2022/03/27 10:53:13;;;;;;;20.55;12.98;;;;;;;13.19;50.30;103070.66;7388392;19;20534;-59
2022/03/27 10:55:45;;;;;;;19.88;12.88;;;;;;;13.03;50.96;103070.09;7383424;19;20022;-62
2022/03/27 10:58:46;;;;;;;21.48;13.18;;;;;;;13.01;49.99;103065.75;7388062;19;20018;-60
2022/03/27 11:01:40;;;;;;;20.30;12.20;;;;;;;12.97;49.08;103067.56;7391622;19;20025;-58
2022/03/27 11:04:13;;;;;;;18.73;12.40;;;;;;;12.86;50.00;103064.28;7392438;19;20367;-62
2022/03/27 11:06:43;;;;;;;18.90;12.07;;;;;;;12.95;49.23;103067.59;7395435;19;20029;-61
2022/03/27 11:09:15;;;;;;;19.70;11.93;;;;;;;12.88;49.75;103060.72;7397554;19;20086;-61
2022/03/27 11:12:06;;;;;;;17.77;11.70;;;;;;;13.08;48.75;103057.72;7398566;19;20044;-59
2022/03/27 11:15:02;;;;;;;16.40;10.50;;;;;;;13.25;47.26;103059.16;7396802;19;20014;-60
2022/03/27 11:17:52;;;;;;;16.52;10.52;;;;;;;13.58;47.66;103060.28;7396975;19;20015;-60
2022/03/27 11:20:55;;;;;;;17.08;10.48;;;;;;;13.88;46.17;103055.22;7396010;19;20426;-60
2022/03/27 11:23:32;;;;;;;16.65;9.77;;;;;;;13.61;44.66;103054.94;7397377;19;20021;-59
2022/03/27 11:26:03;;;;;;;15.07;9.85;;;;;;;13.74;45.77;103046.75;7394776;19;20082;-62
2022/03/27 11:28:58;;;;;;;18.45;10.50;;;;;;;14.10;45.31;103044.19;7399349;19;20025;-61
2022/03/27 11:31:30;;;;;;;15.50;10.50;;;;;;;14.29;45.28;103036.72;7394028;19;20950;-61
2022/03/27 11:34:18;;;;;;;20.02;10.68;;;;;;;14.84;43.63;103030.09;7397831;19;20027;-61
2022/03/27 11:36:50;;;;;;;17.45;10.10;;;;;;;14.82;42.86;103031.03;7395485;19;20065;-62
2022/03/27 11:39:38;;;;;;;17.00;10.52;;;;;;;14.54;43.56;103035.22;7396961;19;20447;-60
2022/03/27 11:42:33;;;;;;;18.02;10.10;;;;;;;15.07;43.47;103028.56;7394433;19;20014;-61
2022/03/27 11:45:24;;;;;;;18.65;10.00;;;;;;;15.45;42.21;103023.97;7395890;19;20018;-61
2022/03/27 11:47:55;;;;;;;19.75;13.40;;;;;;;15.65;41.94;103022.53;7395451;19;20018;-61